sensor_id;sensor_type;location;lat;lon;timestamp;pressure;altitude;pressure_sealevel;temperature;humidity
75008;BME280;63554;48.940;12.050;2023-02-19T00:02:52;97781.34;;;7.58;91.83
75008;BME280;63554;48.940;12.050;2023-02-19T00:06:56;97782.38;;;7.57;92.19
75008;BME280;63554;48.940;12.050;2023-02-19T00:11:01;97779.88;;;7.56;91.43
75008;BME280;63554;48.940;12.050;2023-02-19T00:15:04;97766.03;;;7.59;90.90
75008;BME280;63554;48.940;12.050;2023-02-19T00:19:11;97767.09;;;7.64;90.78
75008;BME280;63554;48.940;12.050;2023-02-19T00:23:14;97760.06;;;7.63;90.11
75008;BME280;63554;48.940;12.050;2023-02-19T00:27:18;97759.31;;;7.69;89.64
75008;BME280;63554;48.940;12.050;2023-02-19T00:31:23;97758.66;;;7.67;89.86
75008;BME280;63554;48.940;12.050;2023-02-19T00:35:26;97759.47;;;7.68;90.34
75008;BME280;63554;48.940;12.050;2023-02-19T00:39:29;97750.53;;;7.61;90.86
75008;BME280;63554;48.940;12.050;2023-02-19T00:43:33;97752.56;;;7.59;91.10
75008;BME280;63554;48.940;12.050;2023-02-19T00:47:35;97757.50;;;7.55;91.61
75008;BME280;63554;48.940;12.050;2023-02-19T00:51:38;97755.34;;;7.50;91.99
75008;BME280;63554;48.940;12.050;2023-02-19T00:55:41;97746.84;;;7.47;91.65
75008;BME280;63554;48.940;12.050;2023-02-19T00:59:45;97750.38;;;7.47;91.62
75008;BME280;63554;48.940;12.050;2023-02-19T01:03:48;97736.50;;;7.50;91.30
75008;BME280;63554;48.940;12.050;2023-02-19T01:07:51;97737.38;;;7.51;90.65
75008;BME280;63554;48.940;12.050;2023-02-19T01:11:53;97735.56;;;7.58;90.48
75008;BME280;63554;48.940;12.050;2023-02-19T01:16:03;97731.59;;;7.76;88.76
75008;BME280;63554;48.940;12.050;2023-02-19T01:20:07;97726.19;;;7.76;88.71
75008;BME280;63554;48.940;12.050;2023-02-19T01:24:09;97730.13;;;7.73;88.96
75008;BME280;63554;48.940;12.050;2023-02-19T01:28:12;97730.94;;;7.73;89.48
75008;BME280;63554;48.940;12.050;2023-02-19T01:32:16;97706.00;;;7.65;90.00
75008;BME280;63554;48.940;12.050;2023-02-19T01:36:19;97715.69;;;7.59;91.11
75008;BME280;63554;48.940;12.050;2023-02-19T01:40:22;97717.09;;;7.55;91.78
75008;BME280;63554;48.940;12.050;2023-02-19T01:49:20;97675.34;;;7.44;92.39
75008;BME280;63554;48.940;12.050;2023-02-19T01:53:29;97690.84;;;7.42;93.05
75008;BME280;63554;48.940;12.050;2023-02-19T01:57:35;97672.59;;;7.38;93.20
75008;BME280;63554;48.940;12.050;2023-02-19T02:01:39;97665.06;;;7.33;93.58
75008;BME280;63554;48.940;12.050;2023-02-19T02:05:53;97657.22;;;7.31;93.65
75008;BME280;63554;48.940;12.050;2023-02-19T02:09:58;97648.28;;;7.31;94.19
75008;BME280;63554;48.940;12.050;2023-02-19T02:14:21;97636.69;;;7.30;94.26
75008;BME280;63554;48.940;12.050;2023-02-19T02:18:35;97640.41;;;7.29;94.56
75008;BME280;63554;48.940;12.050;2023-02-19T02:22:44;97637.50;;;7.31;94.65
75008;BME280;63554;48.940;12.050;2023-02-19T02:27:05;97630.66;;;7.28;95.08
75008;BME280;63554;48.940;12.050;2023-02-19T02:31:15;97631.47;;;7.29;94.92
75008;BME280;63554;48.940;12.050;2023-02-19T02:35:21;97617.19;;;7.28;95.24
75008;BME280;63554;48.940;12.050;2023-02-19T02:39:26;97592.97;;;7.28;95.29
75008;BME280;63554;48.940;12.050;2023-02-19T02:43:29;97591.31;;;7.27;94.98
75008;BME280;63554;48.940;12.050;2023-02-19T02:47:36;97595.47;;;7.30;95.17
75008;BME280;63554;48.940;12.050;2023-02-19T02:51:46;97583.25;;;7.27;95.05
75008;BME280;63554;48.940;12.050;2023-02-19T02:55:53;97587.00;;;7.33;94.79
75008;BME280;63554;48.940;12.050;2023-02-19T02:59:56;97593.88;;;7.36;94.90
75008;BME280;63554;48.940;12.050;2023-02-19T03:04:02;97570.09;;;7.39;94.29
75008;BME280;63554;48.940;12.050;2023-02-19T03:08:08;97568.03;;;7.41;94.64
75008;BME280;63554;48.940;12.050;2023-02-19T03:12:13;97564.31;;;7.42;94.49
75008;BME280;63554;48.940;12.050;2023-02-19T03:16:36;97556.22;;;7.42;94.41
75008;BME280;63554;48.940;12.050;2023-02-19T03:20:59;97561.25;;;7.45;94.58
75008;BME280;63554;48.940;12.050;2023-02-19T03:25:06;97564.31;;;7.42;95.17
75008;BME280;63554;48.940;12.050;2023-02-19T03:29:41;97555.59;;;7.40;94.64
75008;BME280;63554;48.940;12.050;2023-02-19T03:33:46;97550.22;;;7.40;94.83
75008;BME280;63554;48.940;12.050;2023-02-19T03:37:58;97546.06;;;7.38;95.01
75008;BME280;63554;48.940;12.050;2023-02-19T03:42:06;97553.09;;;7.39;94.79
75008;BME280;63554;48.940;12.050;2023-02-19T03:46:14;97563.63;;;7.33;95.28
75008;BME280;63554;48.940;12.050;2023-02-19T03:50:26;97554.06;;;7.31;95.05
75008;BME280;63554;48.940;12.050;2023-02-19T03:54:36;97556.75;;;7.31;95.21
75008;BME280;63554;48.940;12.050;2023-02-19T03:58:46;97563.63;;;7.33;95.04
75008;BME280;63554;48.940;12.050;2023-02-19T04:02:55;97571.88;;;7.32;95.14
75008;BME280;63554;48.940;12.050;2023-02-19T04:07:00;97557.59;;;7.31;95.20
75008;BME280;63554;48.940;12.050;2023-02-19T04:11:05;97552.22;;;7.31;95.04
75008;BME280;63554;48.940;12.050;2023-02-19T04:15:11;97547.03;;;7.30;95.43
75008;BME280;63554;48.940;12.050;2023-02-19T04:19:16;97540.38;;;7.26;95.34
75008;BME280;63554;48.940;12.050;2023-02-19T04:23:23;97536.00;;;7.25;95.49
75008;BME280;63554;48.940;12.050;2023-02-19T04:27:28;97537.41;;;7.21;95.62
75008;BME280;63554;48.940;12.050;2023-02-19T04:31:32;97523.31;;;7.19;95.85
75008;BME280;63554;48.940;12.050;2023-02-19T04:35:36;97549.41;;;7.18;95.88
75008;BME280;63554;48.940;12.050;2023-02-19T04:39:39;97538.38;;;7.13;95.64
75008;BME280;63554;48.940;12.050;2023-02-19T04:43:43;97533.84;;;7.13;95.81
75008;BME280;63554;48.940;12.050;2023-02-19T04:47:45;97542.56;;;7.16;95.67
75008;BME280;63554;48.940;12.050;2023-02-19T04:51:48;97556.06;;;7.22;95.08
75008;BME280;63554;48.940;12.050;2023-02-19T04:55:50;97555.69;;;7.25;95.08
75008;BME280;63554;48.940;12.050;2023-02-19T04:59:55;97548.47;;;7.32;94.50
75008;BME280;63554;48.940;12.050;2023-02-19T05:03:58;97562.84;;;7.40;93.38
75008;BME280;63554;48.940;12.050;2023-02-19T05:08:00;97558.09;;;7.42;93.37
75008;BME280;63554;48.940;12.050;2023-02-19T05:12:03;97560.16;;;7.40;93.23
75008;BME280;63554;48.940;12.050;2023-02-19T05:16:10;97572.78;;;7.39;93.22
75008;BME280;63554;48.940;12.050;2023-02-19T05:20:14;97564.50;;;7.41;92.78
75008;BME280;63554;48.940;12.050;2023-02-19T05:24:18;97562.84;;;7.40;92.58
75008;BME280;63554;48.940;12.050;2023-02-19T05:28:20;97579.19;;;7.38;93.16
75008;BME280;63554;48.940;12.050;2023-02-19T05:32:30;97573.53;;;7.33;93.06
75008;BME280;63554;48.940;12.050;2023-02-19T05:36:32;97578.28;;;7.31;93.18
75008;BME280;63554;48.940;12.050;2023-02-19T05:40:37;97585.53;;;7.30;93.51
75008;BME280;63554;48.940;12.050;2023-02-19T05:44:40;97578.50;;;7.29;93.16
75008;BME280;63554;48.940;12.050;2023-02-19T05:48:44;97584.25;;;7.26;92.99
75008;BME280;63554;48.940;12.050;2023-02-19T05:52:47;97581.97;;;7.23;92.59
75008;BME280;63554;48.940;12.050;2023-02-19T05:56:50;97578.22;;;7.24;92.03
75008;BME280;63554;48.940;12.050;2023-02-19T06:00:53;97586.69;;;7.21;91.27
75008;BME280;63554;48.940;12.050;2023-02-19T06:04:56;97591.00;;;7.16;91.44
75008;BME280;63554;48.940;12.050;2023-02-19T06:08:59;97594.88;;;7.13;91.67
75008;BME280;63554;48.940;12.050;2023-02-19T06:13:02;97591.97;;;7.08;91.90
75008;BME280;63554;48.940;12.050;2023-02-19T06:17:04;97607.66;;;7.04;92.97
75008;BME280;63554;48.940;12.050;2023-02-19T06:21:10;97599.50;;;6.98;92.97
75008;BME280;63554;48.940;12.050;2023-02-19T06:25:13;97604.88;;;6.98;92.94
75008;BME280;63554;48.940;12.050;2023-02-19T06:29:16;97623.53;;;6.99;92.56
75008;BME280;63554;48.940;12.050;2023-02-19T06:33:18;97622.50;;;7.00;91.20
75008;BME280;63554;48.940;12.050;2023-02-19T06:37:22;97633.28;;;7.00;90.46
75008;BME280;63554;48.940;12.050;2023-02-19T06:41:25;97622.56;;;7.07;89.47
75008;BME280;63554;48.940;12.050;2023-02-19T06:45:28;97626.34;;;7.12;89.24
75008;BME280;63554;48.940;12.050;2023-02-19T06:49:30;97627.41;;;7.11;88.91
75008;BME280;63554;48.940;12.050;2023-02-19T06:53:34;97645.38;;;7.11;88.00
75008;BME280;63554;48.940;12.050;2023-02-19T06:57:37;97656.53;;;7.08;88.38
75008;BME280;63554;48.940;12.050;2023-02-19T07:01:39;97679.47;;;7.04;88.14
75008;BME280;63554;48.940;12.050;2023-02-19T07:05:42;97671.47;;;7.10;87.14
75008;BME280;63554;48.940;12.050;2023-02-19T07:09:46;97675.91;;;7.18;86.59
75008;BME280;63554;48.940;12.050;2023-02-19T07:13:53;97691.47;;;7.23;86.79
75008;BME280;63554;48.940;12.050;2023-02-19T07:17:56;97698.91;;;7.21;86.09
75008;BME280;63554;48.940;12.050;2023-02-19T07:21:58;97716.28;;;7.18;86.91
75008;BME280;63554;48.940;12.050;2023-02-19T07:26:03;97700.06;;;7.11;86.82
75008;BME280;63554;48.940;12.050;2023-02-19T07:30:07;97715.34;;;7.11;86.89
75008;BME280;63554;48.940;12.050;2023-02-19T07:34:10;97706.63;;;7.09;86.84
75008;BME280;63554;48.940;12.050;2023-02-19T07:38:14;97713.13;;;7.15;86.17
75008;BME280;63554;48.940;12.050;2023-02-19T07:42:19;97719.78;;;7.19;86.49
75008;BME280;63554;48.940;12.050;2023-02-19T07:46:22;97722.47;;;7.19;86.41
75008;BME280;63554;48.940;12.050;2023-02-19T07:50:25;97720.91;;;7.24;85.88
75008;BME280;63554;48.940;12.050;2023-02-19T07:54:28;97743.25;;;7.25;85.62
75008;BME280;63554;48.940;12.050;2023-02-19T07:58:33;97747.00;;;7.24;85.53
75008;BME280;63554;48.940;12.050;2023-02-19T08:02:36;97748.66;;;7.25;85.75
75008;BME280;63554;48.940;12.050;2023-02-19T08:06:56;97759.16;;;7.20;86.08
75008;BME280;63554;48.940;12.050;2023-02-19T08:10:59;97756.06;;;7.38;83.95
75008;BME280;63554;48.940;12.050;2023-02-19T08:15:21;97750.56;;;7.46;84.54
75008;BME280;63554;48.940;12.050;2023-02-19T08:19:23;97758.75;;;7.38;84.07
75008;BME280;63554;48.940;12.050;2023-02-19T08:23:27;97757.06;;;7.37;84.11
75008;BME280;63554;48.940;12.050;2023-02-19T08:27:30;97758.09;;;7.36;84.59
75008;BME280;63554;48.940;12.050;2023-02-19T08:31:34;97762.44;;;7.37;84.17
75008;BME280;63554;48.940;12.050;2023-02-19T08:35:37;97773.44;;;7.35;84.42
75008;BME280;63554;48.940;12.050;2023-02-19T08:39:40;97770.94;;;7.33;84.03
75008;BME280;63554;48.940;12.050;2023-02-19T08:43:43;97772.41;;;7.36;84.75
75008;BME280;63554;48.940;12.050;2023-02-19T08:47:47;97770.94;;;7.33;84.63
75008;BME280;63554;48.940;12.050;2023-02-19T08:51:49;97770.75;;;7.35;85.54
75008;BME280;63554;48.940;12.050;2023-02-19T08:55:53;97782.34;;;7.36;84.81
75008;BME280;63554;48.940;12.050;2023-02-19T08:59:56;97788.63;;;7.43;83.85
75008;BME280;63554;48.940;12.050;2023-02-19T09:04:00;97794.22;;;7.41;84.05
75008;BME280;63554;48.940;12.050;2023-02-19T09:08:03;97785.75;;;7.44;83.88
75008;BME280;63554;48.940;12.050;2023-02-19T09:12:07;97783.06;;;7.44;84.38
75008;BME280;63554;48.940;12.050;2023-02-19T09:16:12;97781.84;;;7.47;84.31
75008;BME280;63554;48.940;12.050;2023-02-19T09:20:17;97799.66;;;7.48;84.22
75008;BME280;63554;48.940;12.050;2023-02-19T09:24:24;97819.25;;;7.57;84.35
75008;BME280;63554;48.940;12.050;2023-02-19T09:28:35;97810.03;;;7.66;82.31
75008;BME280;63554;48.940;12.050;2023-02-19T09:32:42;97796.44;;;7.74;82.97
75008;BME280;63554;48.940;12.050;2023-02-19T09:36:47;97810.38;;;7.78;82.34
75008;BME280;63554;48.940;12.050;2023-02-19T09:40:50;97814.47;;;7.73;82.80
75008;BME280;63554;48.940;12.050;2023-02-19T09:45:03;97808.38;;;7.65;83.84
75008;BME280;63554;48.940;12.050;2023-02-19T09:49:12;97817.22;;;7.59;84.51
75008;BME280;63554;48.940;12.050;2023-02-19T09:53:20;97819.03;;;7.58;84.85
75008;BME280;63554;48.940;12.050;2023-02-19T09:57:25;97829.56;;;7.53;84.55
75008;BME280;63554;48.940;12.050;2023-02-19T10:01:33;97837.66;;;7.53;84.47
75008;BME280;63554;48.940;12.050;2023-02-19T10:05:39;97841.63;;;7.57;84.20
75008;BME280;63554;48.940;12.050;2023-02-19T10:09:46;97850.19;;;7.61;83.26
75008;BME280;63554;48.940;12.050;2023-02-19T10:13:52;97863.06;;;7.65;84.00
75008;BME280;63554;48.940;12.050;2023-02-19T10:17:56;97866.69;;;7.72;83.29
75008;BME280;63554;48.940;12.050;2023-02-19T10:22:01;97867.69;;;7.86;82.95
75008;BME280;63554;48.940;12.050;2023-02-19T10:26:06;97880.69;;;7.83;82.42
75008;BME280;63554;48.940;12.050;2023-02-19T10:30:17;97871.97;;;7.81;82.43
75008;BME280;63554;48.940;12.050;2023-02-19T10:34:21;97869.34;;;7.87;82.83
75008;BME280;63554;48.940;12.050;2023-02-19T10:38:28;97870.84;;;7.90;82.52
75008;BME280;63554;48.940;12.050;2023-02-19T10:42:33;97879.09;;;7.88;81.26
75008;BME280;63554;48.940;12.050;2023-02-19T10:46:40;97879.56;;;7.92;80.17
75008;BME280;63554;48.940;12.050;2023-02-19T10:50:50;97870.84;;;7.90;80.83
75008;BME280;63554;48.940;12.050;2023-02-19T10:55:13;97884.09;;;7.91;81.79
75008;BME280;63554;48.940;12.050;2023-02-19T10:59:23;97889.88;;;7.88;82.09
75008;BME280;63554;48.940;12.050;2023-02-19T11:03:27;97882.16;;;7.85;81.38
75008;BME280;63554;48.940;12.050;2023-02-19T11:07:29;97892.56;;;7.88;81.13
75008;BME280;63554;48.940;12.050;2023-02-19T11:11:34;97895.53;;;7.93;81.57
75008;BME280;63554;48.940;12.050;2023-02-19T11:15:39;97902.03;;;7.99;80.38
75008;BME280;63554;48.940;12.050;2023-02-19T11:19:43;97881.09;;;8.01;79.70
75008;BME280;63554;48.940;12.050;2023-02-19T11:23:49;97879.31;;;8.08;78.86
75008;BME280;63554;48.940;12.050;2023-02-19T11:27:56;97880.44;;;8.14;79.09
75008;BME280;63554;48.940;12.050;2023-02-19T11:32:27;97896.00;;;8.19;77.53
75008;BME280;63554;48.940;12.050;2023-02-19T11:36:32;97891.34;;;8.27;77.00
75008;BME280;63554;48.940;12.050;2023-02-19T11:40:40;97876.06;;;8.35;76.56
75008;BME280;63554;48.940;12.050;2023-02-19T11:44:56;97889.34;;;8.36;76.45
75008;BME280;63554;48.940;12.050;2023-02-19T11:49:13;97870.78;;;8.41;77.03
75008;BME280;63554;48.940;12.050;2023-02-19T11:53:24;97889.72;;;8.48;76.94
75008;BME280;63554;48.940;12.050;2023-02-19T11:57:37;97872.28;;;8.50;76.05
75008;BME280;63554;48.940;12.050;2023-02-19T12:02:00;97884.72;;;8.45;75.86
75008;BME280;63554;48.940;12.050;2023-02-19T12:06:16;97881.56;;;8.41;75.95
75008;BME280;63554;48.940;12.050;2023-02-19T12:10:22;97891.03;;;8.37;75.81
75008;BME280;63554;48.940;12.050;2023-02-19T12:14:48;97892.00;;;8.29;76.28
75008;BME280;63554;48.940;12.050;2023-02-19T12:19:09;97913.94;;;8.26;77.20
75008;BME280;63554;48.940;12.050;2023-02-19T12:23:36;97898.53;;;8.20;78.09
75008;BME280;63554;48.940;12.050;2023-02-19T12:27:54;97903.91;;;8.20;78.16
75008;BME280;63554;48.940;12.050;2023-02-19T12:32:15;97896.59;;;8.14;78.25
75008;BME280;63554;48.940;12.050;2023-02-19T12:36:26;97894.72;;;8.15;77.79
75008;BME280;63554;48.940;12.050;2023-02-19T12:40:46;97898.53;;;8.20;76.98
75008;BME280;63554;48.940;12.050;2023-02-19T12:44:55;97904.25;;;8.32;76.71
75008;BME280;63554;48.940;12.050;2023-02-19T12:49:04;97905.72;;;8.35;76.20
75008;BME280;63554;48.940;12.050;2023-02-19T12:53:22;97908.88;;;8.38;74.60
75008;BME280;63554;48.940;12.050;2023-02-19T12:57:31;97896.22;;;8.39;75.55
75008;BME280;63554;48.940;12.050;2023-02-19T13:01:39;97903.66;;;8.37;75.88
75008;BME280;63554;48.940;12.050;2023-02-19T13:05:49;97893.00;;;8.43;74.84
75008;BME280;63554;48.940;12.050;2023-02-19T13:09:57;97899.88;;;8.31;77.11
75008;BME280;63554;48.940;12.050;2023-02-19T13:14:05;97909.50;;;8.19;76.98
75008;BME280;63554;48.940;12.050;2023-02-19T13:18:15;97922.78;;;8.20;76.12
75008;BME280;63554;48.940;12.050;2023-02-19T13:22:26;97921.44;;;8.31;75.41
75008;BME280;63554;48.940;12.050;2023-02-19T13:26:58;97919.97;;;8.43;75.52
75008;BME280;63554;48.940;12.050;2023-02-19T13:31:19;97922.53;;;8.51;73.83
75008;BME280;63554;48.940;12.050;2023-02-19T13:35:49;97899.25;;;8.72;74.19
75008;BME280;63554;48.940;12.050;2023-02-19T13:39:55;97895.13;;;8.98;71.88
75008;BME280;63554;48.940;12.050;2023-02-19T13:44:01;97895.06;;;9.19;71.73
75008;BME280;63554;48.940;12.050;2023-02-19T13:48:25;97899.28;;;9.63;69.94
75008;BME280;63554;48.940;12.050;2023-02-19T13:52:41;97890.19;;;9.36;70.88
75008;BME280;63554;48.940;12.050;2023-02-19T13:56:44;97904.72;;;9.07;71.08
75008;BME280;63554;48.940;12.050;2023-02-19T14:00:48;97889.50;;;8.99;71.18
75008;BME280;63554;48.940;12.050;2023-02-19T14:04:54;97900.91;;;8.95;70.94
75008;BME280;63554;48.940;12.050;2023-02-19T14:08:57;97897.59;;;8.99;70.15
75008;BME280;63554;48.940;12.050;2023-02-19T14:13:00;97900.38;;;9.06;69.72
75008;BME280;63554;48.940;12.050;2023-02-19T14:17:23;97893.41;;;9.25;69.62
75008;BME280;63554;48.940;12.050;2023-02-19T14:21:35;97902.66;;;9.09;69.20
75008;BME280;63554;48.940;12.050;2023-02-19T14:25:48;97919.91;;;9.08;69.01
75008;BME280;63554;48.940;12.050;2023-02-19T14:29:53;97916.59;;;9.41;67.97
75008;BME280;63554;48.940;12.050;2023-02-19T14:33:59;97917.88;;;9.45;66.96
75008;BME280;63554;48.940;12.050;2023-02-19T14:38:04;97916.75;;;9.04;67.86
75008;BME280;63554;48.940;12.050;2023-02-19T14:42:14;97923.28;;;8.88;68.51
75008;BME280;63554;48.940;12.050;2023-02-19T14:46:25;97947.50;;;8.82;69.15
75008;BME280;63554;48.940;12.050;2023-02-19T14:50:31;97933.97;;;8.75;68.88
75008;BME280;63554;48.940;12.050;2023-02-19T14:54:40;97933.50;;;8.71;69.35
75008;BME280;63554;48.940;12.050;2023-02-19T14:58:44;97936.38;;;8.70;69.04
75008;BME280;63554;48.940;12.050;2023-02-19T15:02:48;97951.94;;;8.68;69.47
75008;BME280;63554;48.940;12.050;2023-02-19T15:06:52;97949.47;;;8.66;70.65
75008;BME280;63554;48.940;12.050;2023-02-19T15:11:00;97952.66;;;8.55;71.78
75008;BME280;63554;48.940;12.050;2023-02-19T15:15:05;97957.97;;;8.48;72.43
75008;BME280;63554;48.940;12.050;2023-02-19T15:19:09;97968.75;;;8.48;72.72
75008;BME280;63554;48.940;12.050;2023-02-19T15:23:18;97992.22;;;8.48;72.76
75008;BME280;63554;48.940;12.050;2023-02-19T15:27:23;97986.56;;;8.43;73.50
75008;BME280;63554;48.940;12.050;2023-02-19T15:31:27;97984.13;;;8.33;73.51
75008;BME280;63554;48.940;12.050;2023-02-19T15:35:30;97998.28;;;8.20;74.84
75008;BME280;63554;48.940;12.050;2023-02-19T15:39:35;97999.22;;;8.12;76.18
75008;BME280;63554;48.940;12.050;2023-02-19T15:43:43;97999.69;;;8.01;77.06
75008;BME280;63554;48.940;12.050;2023-02-19T15:47:54;97986.91;;;7.88;78.15
75008;BME280;63554;48.940;12.050;2023-02-19T15:52:01;97993.41;;;7.79;79.23
75008;BME280;63554;48.940;12.050;2023-02-19T15:56:09;98010.47;;;7.71;79.90
75008;BME280;63554;48.940;12.050;2023-02-19T16:00:16;98034.34;;;7.60;81.04
75008;BME280;63554;48.940;12.050;2023-02-19T16:04:21;98046.97;;;7.21;80.43
75008;BME280;63554;48.940;12.050;2023-02-19T16:08:28;98015.91;;;6.96;82.85
75008;BME280;63554;48.940;12.050;2023-02-19T16:12:31;98024.34;;;6.92;82.95
75008;BME280;63554;48.940;12.050;2023-02-19T16:16:37;98033.06;;;6.95;83.77
75008;BME280;63554;48.940;12.050;2023-02-19T16:20:45;98036.03;;;7.00;85.48
75008;BME280;63554;48.940;12.050;2023-02-19T16:24:50;98051.84;;;7.26;85.04
75008;BME280;63554;48.940;12.050;2023-02-19T16:28:54;98051.44;;;7.14;81.42
75008;BME280;63554;48.940;12.050;2023-02-19T16:37:39;98057.31;;;6.63;83.25
75008;BME280;63554;48.940;12.050;2023-02-19T16:42:10;98066.59;;;6.52;83.96
75008;BME280;63554;48.940;12.050;2023-02-19T16:46:13;98076.09;;;6.40;84.53
75008;BME280;63554;48.940;12.050;2023-02-19T16:50:17;98079.47;;;6.34;84.72
75008;BME280;63554;48.940;12.050;2023-02-19T16:54:22;98066.75;;;6.28;84.56
75008;BME280;63554;48.940;12.050;2023-02-19T16:58:25;98078.16;;;6.30;85.66
75008;BME280;63554;48.940;12.050;2023-02-19T17:02:28;98083.31;;;6.40;86.37
75008;BME280;63554;48.940;12.050;2023-02-19T17:06:31;98092.22;;;6.40;84.92
75008;BME280;63554;48.940;12.050;2023-02-19T17:10:36;98117.81;;;6.28;84.69
75008;BME280;63554;48.940;12.050;2023-02-19T17:14:39;98112.81;;;6.17;85.66
75008;BME280;63554;48.940;12.050;2023-02-19T17:18:41;98101.72;;;6.11;86.29
75008;BME280;63554;48.940;12.050;2023-02-19T17:22:44;98111.16;;;6.16;86.43
75008;BME280;63554;48.940;12.050;2023-02-19T17:26:48;98120.72;;;6.10;86.71
75008;BME280;63554;48.940;12.050;2023-02-19T17:30:51;98122.75;;;6.08;86.58
75008;BME280;63554;48.940;12.050;2023-02-19T17:34:53;98128.47;;;6.05;86.51
75008;BME280;63554;48.940;12.050;2023-02-19T17:38:57;98132.16;;;6.04;86.69
75008;BME280;63554;48.940;12.050;2023-02-19T17:43:01;98133.69;;;5.98;86.74
75008;BME280;63554;48.940;12.050;2023-02-19T17:47:04;98146.47;;;5.96;86.40
75008;BME280;63554;48.940;12.050;2023-02-19T17:51:07;98151.78;;;5.88;86.92
75008;BME280;63554;48.940;12.050;2023-02-19T17:55:11;98166.75;;;5.82;86.47
75008;BME280;63554;48.940;12.050;2023-02-19T17:59:17;98171.13;;;5.75;86.83
75008;BME280;63554;48.940;12.050;2023-02-19T18:03:20;98188.41;;;5.72;86.96
75008;BME280;63554;48.940;12.050;2023-02-19T18:07:22;98199.47;;;5.69;87.35
75008;BME280;63554;48.940;12.050;2023-02-19T18:11:25;98195.47;;;5.65;87.78
75008;BME280;63554;48.940;12.050;2023-02-19T18:15:29;98190.91;;;5.66;87.81
75008;BME280;63554;48.940;12.050;2023-02-19T18:19:32;98208.22;;;5.63;88.30
75008;BME280;63554;48.940;12.050;2023-02-19T18:23:35;98206.19;;;5.57;87.80
75008;BME280;63554;48.940;12.050;2023-02-19T18:27:38;98215.91;;;5.58;88.67
75008;BME280;63554;48.940;12.050;2023-02-19T18:31:42;98215.75;;;5.60;88.59
75008;BME280;63554;48.940;12.050;2023-02-19T18:35:44;98215.91;;;5.58;88.59
75008;BME280;63554;48.940;12.050;2023-02-19T18:39:50;98220.28;;;5.59;89.17
75008;BME280;63554;48.940;12.050;2023-02-19T18:43:53;98238.94;;;5.61;89.34
75008;BME280;63554;48.940;12.050;2023-02-19T18:47:57;98239.41;;;5.56;89.26
75008;BME280;63554;48.940;12.050;2023-02-19T18:52:00;98244.78;;;5.56;89.26
75008;BME280;63554;48.940;12.050;2023-02-19T18:56:03;98230.38;;;5.57;89.67
75008;BME280;63554;48.940;12.050;2023-02-19T19:00:15;98235.06;;;5.71;90.11
75008;BME280;63554;48.940;12.050;2023-02-19T19:04:19;98233.06;;;5.73;89.90
75008;BME280;63554;48.940;12.050;2023-02-19T19:08:22;98230.88;;;5.77;89.91
75008;BME280;63554;48.940;12.050;2023-02-19T19:12:24;98239.94;;;5.84;89.16
75008;BME280;63554;48.940;12.050;2023-02-19T19:16:27;98239.44;;;5.89;89.02
75008;BME280;63554;48.940;12.050;2023-02-19T19:20:32;98232.88;;;5.83;89.31
75008;BME280;63554;48.940;12.050;2023-02-19T19:24:34;98239.44;;;5.81;88.88
75008;BME280;63554;48.940;12.050;2023-02-19T19:28:38;98218.44;;;5.76;89.10
75008;BME280;63554;48.940;12.050;2023-02-19T19:32:46;98227.53;;;5.75;89.04
75008;BME280;63554;48.940;12.050;2023-02-19T19:36:50;98243.47;;;5.77;89.16
75008;BME280;63554;48.940;12.050;2023-02-19T19:40:53;98244.31;;;5.77;89.02
75008;BME280;63554;48.940;12.050;2023-02-19T19:44:55;98247.16;;;5.84;89.60
75008;BME280;63554;48.940;12.050;2023-02-19T19:48:58;98246.81;;;5.87;89.49
75008;BME280;63554;48.940;12.050;2023-02-19T19:53:02;98237.06;;;5.86;89.56
75008;BME280;63554;48.940;12.050;2023-02-19T19:57:05;98255.72;;;5.87;89.95
75008;BME280;63554;48.940;12.050;2023-02-19T20:01:08;98243.78;;;5.82;89.82
75008;BME280;63554;48.940;12.050;2023-02-19T20:05:12;98254.03;;;5.78;89.97
75008;BME280;63554;48.940;12.050;2023-02-19T20:09:17;98272.66;;;5.71;90.12
75008;BME280;63554;48.940;12.050;2023-02-19T20:13:20;98260.72;;;5.66;89.86
75008;BME280;63554;48.940;12.050;2023-02-19T20:17:24;98268.94;;;5.64;90.19
75008;BME280;63554;48.940;12.050;2023-02-19T20:21:29;98280.72;;;5.63;90.07
75008;BME280;63554;48.940;12.050;2023-02-19T20:25:33;98282.06;;;5.67;90.60
75008;BME280;63554;48.940;12.050;2023-02-19T20:29:36;98287.44;;;5.75;90.08
75008;BME280;63554;48.940;12.050;2023-02-19T20:33:38;98283.09;;;5.74;90.33
75008;BME280;63554;48.940;12.050;2023-02-19T20:37:41;98285.25;;;5.71;90.42
75008;BME280;63554;48.940;12.050;2023-02-19T20:41:47;98287.44;;;5.75;90.34
75008;BME280;63554;48.940;12.050;2023-02-19T20:45:49;98291.81;;;5.77;89.98
75008;BME280;63554;48.940;12.050;2023-02-19T20:49:52;98288.94;;;5.78;89.87
75008;BME280;63554;48.940;12.050;2023-02-19T20:53:55;98292.81;;;5.84;89.55
75008;BME280;63554;48.940;12.050;2023-02-19T20:57:59;98290.63;;;5.87;89.33
75008;BME280;63554;48.940;12.050;2023-02-19T21:02:04;98294.00;;;5.89;89.06
75008;BME280;63554;48.940;12.050;2023-02-19T21:06:07;98296.38;;;5.92;89.00
75008;BME280;63554;48.940;12.050;2023-02-19T21:10:10;98292.66;;;5.93;89.14
75008;BME280;63554;48.940;12.050;2023-02-19T21:14:15;98293.84;;;5.91;89.22
75008;BME280;63554;48.940;12.050;2023-02-19T21:18:17;98296.38;;;5.92;89.04
75008;BME280;63554;48.940;12.050;2023-02-19T21:22:20;98286.78;;;5.90;88.99
75008;BME280;63554;48.940;12.050;2023-02-19T21:26:24;98288.47;;;5.91;89.29
75008;BME280;63554;48.940;12.050;2023-02-19T21:30:34;98287.13;;;5.87;89.77
75008;BME280;63554;48.940;12.050;2023-02-19T21:34:37;98291.66;;;5.86;90.35
75008;BME280;63554;48.940;12.050;2023-02-19T21:38:40;98285.94;;;5.81;90.16
75008;BME280;63554;48.940;12.050;2023-02-19T21:42:42;98285.25;;;5.79;90.62
75008;BME280;63554;48.940;12.050;2023-02-19T21:46:46;98276.03;;;5.82;90.51
75008;BME280;63554;48.940;12.050;2023-02-19T21:50:49;98283.25;;;5.81;90.39
75008;BME280;63554;48.940;12.050;2023-02-19T21:54:52;98291.47;;;5.80;90.60